Главная страница
METAR-TAF:

METAR-TAF

Аэропорты :

Лаэ, Папуа - Новая Гвинея

широта: 6-34-11S, долгота: 146-43-34E, высота над уровнем моря: 73 м

Текущие метеонаблюдения

Эта сводка был подготовлена 4 часа и 5 минут назад, в 09:00 UTC
Ветер 5 Узел от восточно-северо-восточный с порывами до 15 Узел
Температура 28°C
Влажность 79%
Давление 1009 hPa
Видимость 10 км и более
небольшая облачность на высоте 3000 фута
Отдельные облака на высоте 8000 фута

METAR: AYNZ 260900Z 07005G15KT 9999 FEW030 SCT080 28/24 Q1009 RMK: CB IN AREA, SHRA FM E TO W

Время: 23:05 (13:05 UTC)


TAF: отсутствует

Метеонаблюдения и прогнозы для более 4000 аэропортов (сводки METAR и TAF).

Имеющиеся станции представлены на карте желтыми и красными точками.

Чтобы увидеть название станции, наведите на нее мышь.

Затем щелкните, чтобы увидеть метеонаблюдения и метеопрогнозы.

Управление картой: чтобы увеличить масштаб, щелкните зеленые кнопки с черным крестиком; чтобы уменьшить масштаб, щелкните зеленую кнопку с тире; для просмотра соседних карт щелкайте зеленые стрелки.


METAR-TAF: